createdAt,value
2022-09-07T00:01:03.836Z,56
2022-09-07T00:02:08.508Z,56
2022-09-07T00:03:13.066Z,57
2022-09-07T00:04:17.399Z,57
2022-09-07T00:05:23.664Z,57
2022-09-07T00:06:28.248Z,57
2022-09-07T00:07:33.028Z,57
2022-09-07T00:08:39.832Z,57
2022-09-07T00:09:44.644Z,57
2022-09-07T00:10:49.230Z,57
2022-09-07T00:11:58.620Z,57
2022-09-07T00:13:03.252Z,57
2022-09-07T00:14:07.932Z,57
2022-09-07T00:15:12.619Z,57
2022-09-07T00:16:17.173Z,57
2022-09-07T00:17:27.360Z,57
2022-09-07T00:18:31.824Z,57
2022-09-07T00:19:36.113Z,57
2022-09-07T00:20:43.890Z,57
2022-09-07T00:21:48.416Z,57
2022-09-07T00:22:52.784Z,57
2022-09-07T00:23:56.984Z,57
2022-09-07T00:25:02.341Z,56
2022-09-07T00:26:07.080Z,56
2022-09-07T00:27:12.144Z,56
2022-09-07T00:28:16.773Z,56
2022-09-07T00:29:21.277Z,56
2022-09-07T00:30:25.698Z,56
2022-09-07T00:31:30.252Z,56
2022-09-07T00:32:34.580Z,56
2022-09-07T00:33:39.200Z,56
2022-09-07T00:34:43.680Z,56
2022-09-07T00:35:48.116Z,56
2022-09-07T00:36:52.464Z,56
2022-09-07T00:37:56.876Z,56
2022-09-07T00:39:01.267Z,56
2022-09-07T00:40:05.936Z,56
2022-09-07T00:41:10.448Z,56
2022-09-07T00:42:19.537Z,56
2022-09-07T00:43:24.160Z,56
2022-09-07T00:44:36.536Z,56
2022-09-07T00:45:43.768Z,56
2022-09-07T00:46:48.434Z,56
2022-09-07T00:47:52.566Z,56
2022-09-07T00:48:57.000Z,56
2022-09-07T00:50:09.156Z,56
2022-09-07T00:51:18.520Z,56
2022-09-07T00:52:25.605Z,56
2022-09-07T00:53:30.143Z,56
2022-09-07T00:54:39.920Z,56
2022-09-07T00:55:44.483Z,56
2022-09-07T00:56:48.848Z,56
2022-09-07T00:57:55.876Z,56
2022-09-07T00:59:00.375Z,56
2022-09-07T01:00:04.675Z,56
2022-09-07T01:01:09.760Z,56
2022-09-07T01:02:18.223Z,56
2022-09-07T01:03:22.461Z,56
2022-09-07T01:04:27.173Z,56
2022-09-07T01:05:31.653Z,56
2022-09-07T01:06:44.197Z,56
2022-09-07T01:07:48.982Z,56
2022-09-07T01:08:53.236Z,56
2022-09-07T01:09:57.421Z,56
2022-09-07T01:11:02.091Z,56
2022-09-07T01:13:15.627Z,56
2022-09-07T01:14:20.232Z,56
2022-09-07T01:15:24.980Z,56
2022-09-07T01:16:32.221Z,56
2022-09-07T01:17:43.720Z,56
2022-09-07T01:18:48.093Z,56
2022-09-07T01:19:57.516Z,56
2022-09-07T01:21:12.099Z,56
2022-09-07T01:22:19.492Z,56
2022-09-07T01:23:26.986Z,55
2022-09-07T01:24:36.548Z,55
2022-09-07T01:25:46.107Z,55
2022-09-07T01:27:00.860Z,56
2022-09-07T01:28:15.710Z,56
2022-09-07T01:29:25.201Z,56
2022-09-07T01:30:32.105Z,55
2022-09-07T01:31:39.793Z,56
2022-09-07T01:32:47.556Z,56
2022-09-07T01:33:57.092Z,56
2022-09-07T01:35:06.256Z,56
2022-09-07T01:36:15.735Z,55
2022-09-07T01:37:28.656Z,56
2022-09-07T01:38:38.460Z,56
2022-09-07T01:39:46.161Z,55
2022-09-07T01:40:56.665Z,55
2022-09-07T01:42:07.232Z,56
2022-09-07T01:43:12.037Z,56
2022-09-07T01:44:22.308Z,56
2022-09-07T01:45:31.879Z,55
2022-09-07T01:46:36.597Z,55
2022-09-07T01:47:41.276Z,55
2022-09-07T01:48:46.044Z,55
2022-09-07T01:49:50.511Z,56
2022-09-07T01:51:06.283Z,56
2022-09-07T01:52:10.640Z,55
2022-09-07T01:53:18.240Z,55
2022-09-07T01:54:27.759Z,55
2022-09-07T01:55:44.324Z,55
2022-09-07T01:56:53.978Z,55
2022-09-07T01:57:58.535Z,55
2022-09-07T01:59:03.383Z,55
2022-09-07T02:00:11.168Z,55
2022-09-07T02:01:15.720Z,56
2022-09-07T02:02:27.343Z,56
2022-09-07T02:03:31.763Z,56
2022-09-07T02:04:46.287Z,56
2022-09-07T02:05:53.367Z,56
2022-09-07T02:07:00.383Z,56
2022-09-07T02:08:17.361Z,56
2022-09-07T02:09:27.184Z,56
2022-09-07T02:10:31.728Z,56
2022-09-07T02:11:38.256Z,56
2022-09-07T02:12:42.756Z,56
2022-09-07T02:13:52.559Z,56
2022-09-07T02:15:02.059Z,56
2022-09-07T02:16:07.072Z,56
2022-09-07T02:17:11.375Z,55
2022-09-07T02:18:20.836Z,56
2022-09-07T02:19:28.908Z,56
2022-09-07T02:20:33.435Z,56
2022-09-07T02:21:37.963Z,56
2022-09-07T02:22:42.463Z,56
2022-09-07T02:23:47.079Z,56
2022-09-07T02:24:51.619Z,56
2022-09-07T02:25:56.432Z,56
2022-09-07T02:27:00.835Z,56
2022-09-07T02:28:05.275Z,55
2022-09-07T02:29:09.811Z,56
2022-09-07T02:30:14.271Z,56
2022-09-07T02:31:19.081Z,56
2022-09-07T02:32:23.308Z,56
2022-09-07T02:33:27.555Z,56
2022-09-07T02:34:31.986Z,56
2022-09-07T02:35:36.588Z,56
2022-09-07T02:36:41.367Z,55
2022-09-07T02:37:45.940Z,55
2022-09-07T02:38:50.542Z,56
2022-09-07T02:39:55.062Z,56
2022-09-07T02:40:59.364Z,56
2022-09-07T02:42:06.963Z,56
2022-09-07T02:43:11.403Z,55
2022-09-07T02:44:15.867Z,56
2022-09-07T02:45:20.567Z,56
2022-09-07T02:46:26.210Z,56
2022-09-07T02:47:40.772Z,56
2022-09-07T02:48:55.364Z,56
2022-09-07T02:50:09.996Z,56
2022-09-07T02:51:18.391Z,55
2022-09-07T02:52:33.023Z,56
2022-09-07T02:53:42.528Z,56
2022-09-07T02:55:00.473Z,55
2022-09-07T02:56:15.083Z,55
2022-09-07T02:57:27.365Z,56
2022-09-07T02:58:34.616Z,56
2022-09-07T02:59:44.747Z,56
2022-09-07T03:00:51.851Z,56
2022-09-07T03:02:06.717Z,56
2022-09-07T03:03:16.847Z,56
2022-09-07T03:04:24.423Z,56
2022-09-07T03:05:36.703Z,56
2022-09-07T03:06:40.892Z,56
2022-09-07T03:07:52.351Z,56
2022-09-07T03:08:56.646Z,56
2022-09-07T03:10:01.519Z,56
2022-09-07T03:11:07.308Z,56
2022-09-07T03:12:14.467Z,56
2022-09-07T03:13:19.451Z,56
2022-09-07T03:14:23.907Z,56
2022-09-07T03:15:28.557Z,56
2022-09-07T03:16:33.851Z,56
2022-09-07T03:17:38.788Z,56
2022-09-07T03:18:43.569Z,56
2022-09-07T03:19:48.276Z,56
2022-09-07T03:20:52.724Z,56
2022-09-07T03:21:57.115Z,56
2022-09-07T03:23:01.632Z,56
2022-09-07T03:24:06.293Z,56
2022-09-07T03:25:10.652Z,56
2022-09-07T03:26:17.885Z,56
2022-09-07T03:27:28.327Z,56
2022-09-07T03:28:35.907Z,56
2022-09-07T03:29:42.073Z,56
2022-09-07T03:30:45.106Z,56
2022-09-07T03:31:49.442Z,57
2022-09-07T03:32:53.810Z,56
2022-09-07T03:33:58.176Z,56
2022-09-07T03:35:02.855Z,56
2022-09-07T03:36:08.691Z,57
2022-09-07T03:37:15.811Z,57
2022-09-07T03:39:24.651Z,57
2022-09-07T03:40:33.439Z,57
2022-09-07T03:41:37.867Z,57
2022-09-07T03:42:42.319Z,57
2022-09-07T03:43:49.707Z,57
2022-09-07T03:44:54.063Z,57
2022-09-07T03:45:58.589Z,57
2022-09-07T03:47:03.135Z,57
2022-09-07T03:48:12.751Z,57
2022-09-07T03:49:17.215Z,57
2022-09-07T03:50:22.043Z,57
2022-09-07T03:51:26.707Z,57
2022-09-07T03:52:31.103Z,57
2022-09-07T03:53:35.413Z,57
2022-09-07T03:54:44.271Z,58
2022-09-07T03:55:49.604Z,57
2022-09-07T03:56:59.743Z,57
2022-09-07T03:58:04.320Z,57
2022-09-07T03:59:08.783Z,57
2022-09-07T04:00:13.140Z,57
2022-09-07T04:01:17.737Z,57
2022-09-07T04:02:25.163Z,57
2022-09-07T04:03:32.515Z,58
2022-09-07T04:04:36.955Z,58
2022-09-07T04:05:41.635Z,58
2022-09-07T04:06:46.275Z,58
2022-09-07T04:07:50.781Z,58
2022-09-07T04:08:55.471Z,58
2022-09-07T04:10:05.123Z,58
2022-09-07T04:11:09.770Z,58
2022-09-07T04:12:14.255Z,58
2022-09-07T04:13:23.663Z,58
2022-09-07T04:14:28.784Z,58
2022-09-07T04:15:33.371Z,58
2022-09-07T04:16:37.990Z,58
2022-09-07T04:17:42.287Z,58
2022-09-07T04:18:47.143Z,58
2022-09-07T04:19:51.862Z,58
2022-09-07T04:20:56.323Z,60
2022-09-07T04:22:01.030Z,59
2022-09-07T04:23:08.199Z,59
2022-09-07T04:24:12.973Z,58
2022-09-07T04:25:17.327Z,58
2022-09-07T04:26:21.882Z,58
2022-09-07T04:27:26.415Z,58
2022-09-07T04:28:30.825Z,59
2022-09-07T04:29:35.105Z,59
2022-09-07T04:30:39.538Z,58
2022-09-07T04:31:48.035Z,58
2022-09-07T04:32:52.663Z,58
2022-09-07T04:33:57.378Z,58
2022-09-07T04:35:02.107Z,58
2022-09-07T04:36:06.671Z,58
2022-09-07T04:37:11.011Z,58
2022-09-07T04:38:15.268Z,59
2022-09-07T04:39:19.842Z,59
2022-09-07T04:40:24.445Z,59
2022-09-07T04:41:28.851Z,59
2022-09-07T04:42:37.483Z,58
2022-09-07T04:43:41.963Z,58
2022-09-07T04:44:46.491Z,58
2022-09-07T04:45:50.960Z,58
2022-09-07T04:46:55.500Z,59
2022-09-07T04:47:59.947Z,58
2022-09-07T04:49:04.678Z,58
2022-09-07T04:50:14.296Z,59
2022-09-07T04:51:21.895Z,58
2022-09-07T04:52:26.531Z,59
2022-09-07T04:53:31.119Z,58
2022-09-07T04:55:39.539Z,59
2022-09-07T04:56:44.185Z,58
2022-09-07T04:57:48.595Z,58
2022-09-07T04:58:53.331Z,59
2022-09-07T04:59:58.999Z,59
2022-09-07T05:01:03.683Z,59
2022-09-07T05:02:12.753Z,59
2022-09-07T05:03:17.243Z,59
2022-09-07T05:04:21.862Z,59
2022-09-07T05:05:26.291Z,59
2022-09-07T05:06:31.450Z,59
2022-09-07T05:07:35.743Z,59
2022-09-07T05:08:40.498Z,59
2022-09-07T05:09:45.183Z,59
2022-09-07T05:10:49.608Z,59
2022-09-07T05:11:54.104Z,59
2022-09-07T05:13:00.707Z,59
2022-09-07T05:14:04.930Z,59
2022-09-07T05:15:09.490Z,59
2022-09-07T05:16:13.923Z,59
2022-09-07T05:17:18.627Z,59
2022-09-07T05:18:23.255Z,59
2022-09-07T05:19:27.548Z,59
2022-09-07T05:20:32.006Z,59
2022-09-07T05:21:36.383Z,59
2022-09-07T05:22:40.942Z,59
2022-09-07T05:23:45.410Z,59
2022-09-07T05:24:50.054Z,59
2022-09-07T05:25:54.541Z,59
2022-09-07T05:26:59.290Z,59
2022-09-07T05:28:03.814Z,59
2022-09-07T05:31:17.773Z,60
2022-09-07T05:32:22.282Z,60
2022-09-07T05:34:33.468Z,60
2022-09-07T05:35:37.774Z,60
2022-09-07T05:36:42.186Z,60
2022-09-07T05:37:46.782Z,60
2022-09-07T05:38:51.442Z,60
2022-09-07T05:39:56.256Z,60
2022-09-07T05:41:00.841Z,60
2022-09-07T05:42:10.370Z,60
2022-09-07T05:43:15.098Z,60
2022-09-07T05:45:24.046Z,60
2022-09-07T05:46:28.502Z,60
2022-09-07T05:47:34.577Z,60
2022-09-07T05:48:39.181Z,60
2022-09-07T05:49:43.695Z,60
2022-09-07T05:50:53.434Z,60
2022-09-07T05:51:57.740Z,60
2022-09-07T05:53:01.985Z,60
2022-09-07T05:54:06.531Z,60
2022-09-07T05:55:29.210Z,60
2022-09-07T05:56:17.247Z,59
2022-09-07T05:57:21.711Z,59
2022-09-07T05:58:27.162Z,59
2022-09-07T05:59:31.849Z,60
2022-09-07T06:00:40.737Z,60
2022-09-07T06:01:49.674Z,59
2022-09-07T06:02:54.427Z,60
2022-09-07T06:03:58.966Z,59
2022-09-07T06:05:03.538Z,59
2022-09-07T06:06:08.182Z,59
2022-09-07T06:07:23.881Z,59
2022-09-07T06:08:21.259Z,59
2022-09-07T06:09:30.598Z,59
2022-09-07T06:10:49.171Z,59
2022-09-07T06:11:38.290Z,59
2022-09-07T06:12:44.352Z,59
2022-09-07T06:13:47.528Z,59
2022-09-07T06:14:52.174Z,59
2022-09-07T06:16:01.066Z,60
2022-09-07T06:17:05.386Z,60
2022-09-07T06:18:10.226Z,59
2022-09-07T06:19:15.186Z,60
2022-09-07T06:20:19.905Z,59
2022-09-07T06:21:24.427Z,59
2022-09-07T06:22:31.106Z,59
2022-09-07T06:23:37.321Z,59
2022-09-07T06:24:42.094Z,59
2022-09-07T06:25:46.790Z,59
2022-09-07T06:26:51.637Z,59
2022-09-07T06:28:00.733Z,59
2022-09-07T06:29:05.458Z,59
2022-09-07T06:30:14.233Z,59
2022-09-07T06:31:19.073Z,59
2022-09-07T06:33:27.605Z,59
2022-09-07T06:34:31.850Z,59
2022-09-07T06:35:36.470Z,59
2022-09-07T06:36:40.798Z,58
2022-09-07T06:37:45.049Z,58
2022-09-07T06:38:50.181Z,58
2022-09-07T06:39:54.584Z,58
2022-09-07T06:42:03.373Z,59
2022-09-07T06:43:07.998Z,59
2022-09-07T06:44:12.773Z,59
2022-09-07T06:45:17.258Z,59
2022-09-07T06:47:30.237Z,58
2022-09-07T06:48:36.693Z,58
2022-09-07T06:49:41.157Z,59
2022-09-07T06:50:45.454Z,59
2022-09-07T06:51:58.370Z,58
2022-09-07T06:55:13.010Z,58
2022-09-07T06:56:17.702Z,58
2022-09-07T06:57:22.334Z,58
2022-09-07T06:58:26.838Z,59
2022-09-07T06:59:31.173Z,58
2022-09-07T07:00:35.583Z,58
2022-09-07T07:01:39.833Z,58
2022-09-07T07:02:44.302Z,58
2022-09-07T07:03:48.818Z,58
2022-09-07T07:04:53.286Z,58
2022-09-07T07:06:00.002Z,58
2022-09-07T07:07:04.543Z,58
2022-09-07T07:08:11.913Z,58
2022-09-07T07:09:16.298Z,58
2022-09-07T07:10:24.439Z,58
2022-09-07T07:11:24.814Z,58
2022-09-07T07:13:34.393Z,58
2022-09-07T07:14:45.068Z,58
2022-09-07T07:15:47.017Z,58
2022-09-07T07:16:51.578Z,58
2022-09-07T07:18:09.447Z,58
2022-09-07T07:19:03.938Z,57
2022-09-07T07:20:10.146Z,57
2022-09-07T07:21:14.863Z,57
2022-09-07T07:22:42.859Z,57
2022-09-07T07:23:27.848Z,57
2022-09-07T07:24:32.458Z,57
2022-09-07T07:25:37.043Z,57
2022-09-07T07:26:41.430Z,58
2022-09-07T07:27:49.622Z,58
2022-09-07T07:29:02.269Z,57
2022-09-07T07:30:02.885Z,59
2022-09-07T07:31:11.231Z,58
2022-09-07T07:32:12.425Z,59
2022-09-07T07:34:20.522Z,58
2022-09-07T07:35:25.035Z,57
2022-09-07T07:36:29.377Z,58
2022-09-07T07:37:34.170Z,57
2022-09-07T07:41:56.491Z,58
2022-09-07T07:42:59.518Z,58
2022-09-07T07:44:03.953Z,58
2022-09-07T07:46:16.564Z,58
2022-09-07T07:47:21.020Z,58
2022-09-07T07:48:25.466Z,58
2022-09-07T07:49:30.017Z,58
2022-09-07T07:50:34.702Z,58
2022-09-07T07:52:50.462Z,58
2022-09-07T07:53:53.622Z,57
2022-09-07T07:54:57.718Z,57
2022-09-07T07:56:02.021Z,57
2022-09-07T07:57:06.598Z,57
2022-09-07T07:58:11.725Z,57
2022-09-07T07:59:16.268Z,56
2022-09-07T08:00:37.325Z,56
2022-09-07T08:01:25.440Z,57
2022-09-07T08:02:33.251Z,57
2022-09-07T08:03:37.584Z,57
2022-09-07T08:04:42.260Z,57
2022-09-07T08:05:46.930Z,56
2022-09-07T08:06:51.732Z,57
2022-09-07T08:07:56.353Z,56
2022-09-07T08:09:05.404Z,56
2022-09-07T08:10:13.776Z,56
2022-09-07T08:11:18.280Z,56
2022-09-07T08:12:25.547Z,57
2022-09-07T08:13:27.447Z,56
2022-09-07T08:14:31.783Z,58
2022-09-07T08:15:36.170Z,57
2022-09-07T08:16:40.537Z,57
2022-09-07T08:17:45.096Z,57
2022-09-07T08:18:49.557Z,57
2022-09-07T08:19:54.060Z,56
2022-09-07T08:20:59.121Z,56
2022-09-07T08:22:03.814Z,57
2022-09-07T08:23:08.432Z,56
2022-09-07T08:24:13.166Z,56
2022-09-07T08:25:17.741Z,56
2022-09-07T08:26:27.289Z,56
2022-09-07T08:27:31.649Z,55
2022-09-07T08:28:36.132Z,56
2022-09-07T08:29:40.940Z,56
2022-09-07T08:30:45.488Z,56
2022-09-07T08:31:49.953Z,56
2022-09-07T08:32:54.629Z,56
2022-09-07T08:33:59.074Z,56
2022-09-07T08:35:03.453Z,55
2022-09-07T08:36:08.326Z,56
2022-09-07T08:37:17.469Z,57
2022-09-07T08:38:22.060Z,57
2022-09-07T08:39:26.608Z,56
2022-09-07T08:40:31.821Z,55
2022-09-07T08:41:36.563Z,55
2022-09-07T08:42:46.488Z,55
2022-09-07T08:43:59.098Z,56
2022-09-07T08:45:04.228Z,56
2022-09-07T08:46:15.583Z,55
2022-09-07T08:47:22.625Z,55
2022-09-07T08:48:41.348Z,55
2022-09-07T08:49:45.847Z,55
2022-09-07T08:51:00.544Z,55
2022-09-07T08:52:10.030Z,55
2022-09-07T08:53:14.861Z,55
2022-09-07T08:55:22.812Z,55
2022-09-07T08:56:33.554Z,55
2022-09-07T08:57:37.603Z,55
2022-09-07T08:58:49.024Z,56
2022-09-07T08:59:50.424Z,55
2022-09-07T09:02:35.350Z,55
2022-09-07T09:03:30.572Z,56
2022-09-07T09:04:31.390Z,55
2022-09-07T09:05:34.826Z,55
2022-09-07T09:06:42.548Z,55
2022-09-07T09:07:53.047Z,55
2022-09-07T09:09:00.256Z,55
2022-09-07T09:10:10.012Z,55
2022-09-07T09:11:21.531Z,55
2022-09-07T09:12:28.735Z,56
2022-09-07T09:13:43.336Z,55
2022-09-07T09:15:00.992Z,55
2022-09-07T09:16:05.374Z,55
2022-09-07T09:17:13.018Z,55
2022-09-07T09:18:18.076Z,55
2022-09-07T09:19:23.428Z,55
2022-09-07T09:20:36.048Z,55
2022-09-07T09:21:45.760Z,55
2022-09-07T09:22:50.588Z,55
2022-09-07T09:23:55.048Z,55
2022-09-07T09:25:01.937Z,56
2022-09-07T09:26:19.347Z,55
2022-09-07T09:27:26.740Z,55
2022-09-07T09:28:34.542Z,55
2022-09-07T09:29:40.953Z,55
2022-09-07T09:30:45.232Z,55
2022-09-07T09:31:49.708Z,55
2022-09-07T09:32:54.099Z,55
2022-09-07T09:34:08.684Z,55
2022-09-07T09:35:15.903Z,55
2022-09-07T09:36:25.940Z,55
2022-09-07T09:37:30.530Z,55
2022-09-07T09:38:38.136Z,54
2022-09-07T09:39:42.655Z,54
2022-09-07T09:40:46.999Z,55
2022-09-07T09:41:53.476Z,55
2022-09-07T09:43:00.808Z,55
2022-09-07T09:44:05.376Z,55
2022-09-07T09:45:09.948Z,55
2022-09-07T09:46:18.885Z,54
2022-09-07T09:47:33.734Z,54
2022-09-07T09:48:38.155Z,54
2022-09-07T09:49:42.533Z,54
2022-09-07T09:52:59.527Z,54
2022-09-07T09:54:08.656Z,54
2022-09-07T09:55:34.231Z,55
2022-09-07T09:56:31.064Z,54
2022-09-07T09:57:38.506Z,54
2022-09-07T10:00:10.447Z,54
2022-09-07T10:01:27.031Z,54
2022-09-07T10:04:34.400Z,55
2022-09-07T10:05:39.032Z,54
2022-09-07T10:06:43.249Z,54
2022-09-07T10:07:50.573Z,54
2022-09-07T10:08:55.148Z,54
2022-09-07T10:09:59.663Z,54
2022-09-07T10:11:04.225Z,54
2022-09-07T10:12:08.939Z,54
2022-09-07T10:13:20.879Z,54
2022-09-07T10:14:25.616Z,54
2022-09-07T10:15:41.456Z,55
2022-09-07T10:16:44.683Z,54
2022-09-07T10:17:49.129Z,54
2022-09-07T10:18:53.508Z,54
2022-09-07T10:19:58.887Z,54
2022-09-07T10:21:08.479Z,53
2022-09-07T10:22:16.332Z,53
2022-09-07T10:23:26.680Z,53
2022-09-07T10:24:31.336Z,53
2022-09-07T10:25:36.195Z,53
2022-09-07T10:26:40.879Z,54
2022-09-07T10:27:45.560Z,53
2022-09-07T10:29:06.765Z,53
2022-09-07T10:30:06.781Z,53
2022-09-07T10:31:15.195Z,53
2022-09-07T10:32:23.337Z,52
2022-09-07T10:33:32.887Z,52
2022-09-07T10:34:42.348Z,53
2022-09-07T10:35:47.841Z,53
2022-09-07T10:36:54.839Z,53
2022-09-07T10:38:06.492Z,53
2022-09-07T10:39:16.104Z,53
2022-09-07T10:40:30.590Z,53
2022-09-07T10:41:41.519Z,53
2022-09-07T10:45:04.728Z,52
2022-09-07T10:46:56.158Z,52
2022-09-07T10:47:26.709Z,53
2022-09-07T10:48:32.356Z,53
2022-09-07T10:50:21.734Z,52
2022-09-07T10:50:54.372Z,52
2022-09-07T10:52:01.571Z,53
2022-09-07T10:53:36.848Z,52
2022-09-07T10:54:35.918Z,52
2022-09-07T10:55:32.331Z,52
2022-09-07T10:56:36.755Z,52
2022-09-07T10:57:53.932Z,53
2022-09-07T10:59:08.507Z,52
2022-09-07T11:00:18.167Z,52
2022-09-07T11:01:22.580Z,53
2022-09-07T11:02:37.531Z,53
2022-09-07T11:03:50.655Z,55
2022-09-07T11:04:58.407Z,54
2022-09-07T11:06:05.699Z,54
2022-09-07T11:07:15.758Z,52
2022-09-07T11:08:27.917Z,52
2022-09-07T11:09:42.391Z,52
2022-09-07T11:10:53.376Z,53
2022-09-07T11:12:03.783Z,51
2022-09-07T11:13:09.847Z,51
2022-09-07T11:14:14.319Z,51
2022-09-07T11:15:20.491Z,51
2022-09-07T11:17:42.748Z,52
2022-09-07T11:18:50.502Z,51
2022-09-07T11:20:05.059Z,50
2022-09-07T11:21:14.875Z,51
2022-09-07T11:22:19.385Z,51
2022-09-07T11:23:26.911Z,51
2022-09-07T11:24:41.548Z,51
2022-09-07T11:25:49.283Z,51
2022-09-07T11:27:06.323Z,51
2022-09-07T11:28:15.541Z,51
2022-09-07T11:29:29.536Z,51
2022-09-07T11:30:35.766Z,51
2022-09-07T11:32:52.484Z,52
2022-09-07T11:35:19.611Z,52
2022-09-07T11:36:31.167Z,52
2022-09-07T11:37:36.059Z,52
2022-09-07T11:38:43.751Z,52
2022-09-07T11:39:58.351Z,51
2022-09-07T11:41:08.687Z,51
2022-09-07T11:43:31.495Z,52
2022-09-07T11:44:36.636Z,51
2022-09-07T11:45:41.341Z,51
2022-09-07T11:46:45.944Z,50
2022-09-07T11:47:52.211Z,51
2022-09-07T11:49:04.323Z,51
2022-09-07T11:50:10.470Z,50
2022-09-07T11:51:17.819Z,50
2022-09-07T11:52:22.579Z,50
2022-09-07T11:53:29.863Z,50
2022-09-07T11:54:34.179Z,50
2022-09-07T11:55:38.724Z,50
2022-09-07T11:56:47.808Z,50
2022-09-07T11:57:55.429Z,50
2022-09-07T11:59:06.671Z,49
2022-09-07T12:00:18.963Z,49
2022-09-07T12:01:28.481Z,49
2022-09-07T12:02:58.612Z,50
2022-09-07T12:03:58.542Z,50
2022-09-07T12:05:08.048Z,50
2022-09-07T12:06:20.397Z,50
2022-09-07T12:07:34.899Z,50
2022-09-07T12:08:47.103Z,51
2022-09-07T12:09:58.893Z,51
2022-09-07T12:11:13.583Z,51
2022-09-07T12:12:23.199Z,51
2022-09-07T12:13:37.908Z,50
2022-09-07T12:14:52.873Z,51
2022-09-07T12:15:59.828Z,50
2022-09-07T12:17:14.559Z,49
2022-09-07T12:18:29.384Z,49
2022-09-07T12:19:44.323Z,49
2022-09-07T12:20:48.906Z,50
2022-09-07T12:21:53.483Z,51
2022-09-07T12:23:01.002Z,51
2022-09-07T12:24:08.099Z,50
2022-09-07T12:25:23.650Z,51
2022-09-07T12:26:28.144Z,51
2022-09-07T12:27:35.603Z,50
2022-09-07T12:28:40.136Z,50
2022-09-07T12:29:45.726Z,50
2022-09-07T12:30:58.084Z,51
2022-09-07T12:32:53.361Z,51
2022-09-07T12:33:09.879Z,50
2022-09-07T12:34:19.571Z,49
2022-09-07T12:35:33.591Z,49
2022-09-07T12:36:37.911Z,49
2022-09-07T12:37:42.386Z,49
2022-09-07T12:38:47.207Z,50
2022-09-07T12:40:01.908Z,50
2022-09-07T12:42:38.180Z,50
2022-09-07T12:43:29.747Z,50
2022-09-07T12:44:37.254Z,50
2022-09-07T12:45:41.813Z,50
2022-09-07T12:46:46.950Z,50
2022-09-07T12:47:54.271Z,50
2022-09-07T12:48:58.661Z,50
2022-09-07T12:50:10.058Z,51
2022-09-07T12:51:59.255Z,49
2022-09-07T12:52:26.072Z,49
2022-09-07T12:53:33.256Z,50
2022-09-07T12:54:43.571Z,49
2022-09-07T12:58:23.943Z,49
2022-09-07T12:59:36.847Z,50
2022-09-07T13:00:43.864Z,49
2022-09-07T13:02:01.236Z,50
2022-09-07T13:03:49.316Z,50
2022-09-07T13:04:23.079Z,50
2022-09-07T13:05:37.287Z,50
2022-09-07T13:08:08.609Z,49
2022-09-07T13:09:19.256Z,49
2022-09-07T13:10:32.207Z,49
2022-09-07T13:11:37.609Z,50
2022-09-07T13:12:57.852Z,50
2022-09-07T13:14:57.787Z,50
2022-09-07T13:16:03.711Z,50
2022-09-07T13:17:22.305Z,48
2022-09-07T13:18:21.382Z,48
2022-09-07T13:19:30.196Z,48
2022-09-07T13:20:44.673Z,48
2022-09-07T13:21:52.751Z,49
2022-09-07T13:22:57.247Z,49
2022-09-07T13:24:45.447Z,49
2022-09-07T13:25:16.541Z,49
2022-09-07T13:26:23.919Z,49
2022-09-07T13:27:40.295Z,49
2022-09-07T13:28:58.101Z,49
2022-09-07T13:30:05.330Z,49
2022-09-07T13:31:18.180Z,49
2022-09-07T13:33:38.906Z,49
2022-09-07T13:34:47.771Z,49
2022-09-07T13:36:02.290Z,49
2022-09-07T13:37:06.510Z,48
2022-09-07T13:38:13.672Z,48
2022-09-07T13:39:22.307Z,47
2022-09-07T13:40:26.738Z,47
2022-09-07T13:41:32.290Z,47
2022-09-07T13:42:36.846Z,47
2022-09-07T13:43:41.537Z,47
2022-09-07T13:44:48.689Z,47
2022-09-07T13:45:59.115Z,46
2022-09-07T13:47:03.256Z,47
2022-09-07T13:48:19.205Z,47
2022-09-07T13:49:33.258Z,48
2022-09-07T13:50:43.046Z,48
2022-09-07T13:51:59.138Z,48
2022-09-07T13:53:09.647Z,47
2022-09-07T13:54:22.211Z,47
2022-09-07T13:55:31.775Z,47
2022-09-07T13:56:42.091Z,47
2022-09-07T13:57:54.862Z,48
2022-09-07T13:58:59.450Z,48
2022-09-07T14:00:11.773Z,48
2022-09-07T14:01:16.199Z,48
2022-09-07T14:02:20.601Z,48
2022-09-07T14:03:32.948Z,47
2022-09-07T14:04:37.345Z,48
2022-09-07T14:05:42.680Z,47
2022-09-07T14:06:46.982Z,47
2022-09-07T14:07:51.482Z,48
2022-09-07T14:08:56.026Z,49
2022-09-07T14:10:08.514Z,49
2022-09-07T14:11:20.988Z,49
2022-09-07T14:12:33.298Z,49
2022-09-07T14:13:44.432Z,49
2022-09-07T14:14:59.347Z,49
2022-09-07T14:16:14.009Z,49
2022-09-07T14:17:18.966Z,49
2022-09-07T14:18:25.202Z,49
2022-09-07T14:19:32.546Z,49
2022-09-07T14:20:46.520Z,48
2022-09-07T14:21:55.670Z,48
2022-09-07T14:23:02.931Z,48
2022-09-07T14:24:12.591Z,49
2022-09-07T14:25:20.091Z,49
2022-09-07T14:26:24.946Z,49
2022-09-07T14:27:29.830Z,49
2022-09-07T14:28:37.294Z,49
2022-09-07T14:29:42.346Z,49
2022-09-07T14:30:47.175Z,49
2022-09-07T14:32:55.482Z,49
2022-09-07T14:34:02.472Z,49
2022-09-07T14:35:06.879Z,49
2022-09-07T14:36:37.271Z,50
2022-09-07T14:37:19.078Z,49
2022-09-07T14:39:30.642Z,49
2022-09-07T14:40:35.214Z,49
2022-09-07T14:42:43.030Z,50
2022-09-07T14:43:48.075Z,49
2022-09-07T14:44:52.659Z,50
2022-09-07T14:46:07.123Z,50
2022-09-07T14:47:22.063Z,50
2022-09-07T14:48:32.459Z,50
2022-09-07T14:49:35.767Z,50
2022-09-07T14:50:44.658Z,50
2022-09-07T14:51:54.233Z,50
2022-09-07T14:54:05.873Z,50
2022-09-07T14:55:10.370Z,50
2022-09-07T14:56:25.324Z,51
2022-09-07T14:57:32.614Z,50
2022-09-07T14:58:37.002Z,50
2022-09-07T14:59:41.466Z,50
2022-09-07T15:00:46.034Z,51
2022-09-07T15:01:58.125Z,51
2022-09-07T15:03:13.000Z,50
2022-09-07T15:04:27.681Z,50
2022-09-07T15:05:31.926Z,50
2022-09-07T15:07:45.365Z,49
2022-09-07T15:08:49.650Z,49
2022-09-07T15:09:55.199Z,49
2022-09-07T15:12:29.877Z,48
2022-09-07T15:13:26.750Z,48
2022-09-07T15:14:31.328Z,48
2022-09-07T15:15:37.121Z,48
2022-09-07T15:16:40.790Z,49
2022-09-07T15:17:46.751Z,49
2022-09-07T15:18:52.005Z,49
2022-09-07T15:20:02.154Z,49
2022-09-07T15:21:12.837Z,49
2022-09-07T15:22:19.729Z,49
2022-09-07T15:23:24.305Z,49
2022-09-07T15:24:31.853Z,49
2022-09-07T15:25:36.655Z,49
2022-09-07T15:27:46.269Z,50
2022-09-07T15:29:55.697Z,51
2022-09-07T15:32:12.723Z,51
2022-09-07T15:33:23.294Z,51
2022-09-07T15:34:29.710Z,51
2022-09-07T15:35:45.225Z,51
2022-09-07T15:36:52.000Z,52
2022-09-07T15:38:05.363Z,52
2022-09-07T15:39:01.550Z,52
2022-09-07T15:40:29.219Z,52
2022-09-07T15:41:35.878Z,52
2022-09-07T15:43:47.580Z,53
2022-09-07T15:44:50.588Z,53
2022-09-07T15:46:10.652Z,53
2022-09-07T15:47:50.541Z,53
2022-09-07T15:48:33.472Z,53
2022-09-07T15:49:39.528Z,53
2022-09-07T15:50:43.013Z,53
2022-09-07T15:52:54.867Z,54
2022-09-07T15:54:07.727Z,54
2022-09-07T15:55:03.909Z,54
2022-09-07T15:56:08.765Z,54
2022-09-07T15:58:18.145Z,54
2022-09-07T15:59:23.478Z,54
2022-09-07T16:00:27.854Z,54
2022-09-07T16:03:52.969Z,54
2022-09-07T16:04:57.636Z,54
2022-09-07T16:06:02.997Z,54
2022-09-07T16:07:07.354Z,55
2022-09-07T16:08:27.534Z,55
2022-09-07T16:09:17.417Z,55
2022-09-07T16:10:25.701Z,55
2022-09-07T16:11:30.606Z,55
2022-09-07T16:13:39.962Z,55
2022-09-07T16:14:44.325Z,55
2022-09-07T16:15:48.717Z,55
2022-09-07T16:17:26.879Z,55
2022-09-07T16:18:00.266Z,55
2022-09-07T16:19:07.140Z,55
2022-09-07T16:20:12.773Z,56
2022-09-07T16:23:27.328Z,55
2022-09-07T16:24:32.037Z,55
2022-09-07T16:25:36.999Z,55
2022-09-07T16:26:42.036Z,56
2022-09-07T16:27:46.193Z,56
2022-09-07T16:28:50.733Z,56
2022-09-07T16:29:59.922Z,56
2022-09-07T16:31:04.366Z,56
2022-09-07T16:33:14.558Z,57
2022-09-07T16:34:19.097Z,56
2022-09-07T16:35:23.786Z,56
2022-09-07T16:36:27.741Z,56
2022-09-07T16:37:32.376Z,57
2022-09-07T16:38:44.634Z,57
2022-09-07T16:39:41.947Z,57
2022-09-07T16:40:46.126Z,57
2022-09-07T16:41:52.138Z,57
2022-09-07T16:42:56.502Z,57
2022-09-07T16:44:02.317Z,58
2022-09-07T16:46:15.723Z,58
2022-09-07T16:47:19.906Z,58
2022-09-07T16:48:26.141Z,59
2022-09-07T16:49:36.074Z,59
2022-09-07T16:50:41.118Z,59
2022-09-07T16:51:53.373Z,59
2022-09-07T16:52:57.885Z,59
2022-09-07T16:54:02.310Z,59
2022-09-07T16:55:09.662Z,59
2022-09-07T16:56:18.675Z,59
2022-09-07T16:57:26.364Z,59
2022-09-07T16:58:38.114Z,60
2022-09-07T16:59:35.362Z,60